Time;durP1;ratioP1;P1;durP2;ratioP2;P2;SDS_P1;SDS_P2;PMS_P1;PMS_P2;Temp;Humidity;BMP_temperature;BMP_pressure;BME280_temperature;BME280_humidity;BME280_pressure;Samples;Min_cycle;Max_cycle;Signal;HPM_P1;HPM_P2
2022/02/20 00:01:04;;;;;;;;;;;9.10;99.90;;;;;;5075842;28;19913;-73
2022/02/20 00:03:30;;;;;;;;;;;9.10;99.90;;;;;;5077290;28;19920;-73
2022/02/20 00:05:55;;;;;;;;;;;9.20;99.90;;;;;;5076624;28;19917;-73
2022/02/20 00:08:28;;;;;;;;;;;9.20;99.90;;;;;;5064065;28;19994;-74
2022/02/20 00:10:59;;;;;;;;;;;9.20;99.90;;;;;;5062313;28;19913;-73
2022/02/20 00:13:30;;;;;;;;;;;9.20;99.90;;;;;;5076818;28;20066;-73
2022/02/20 00:16:00;;;;;;;;;;;9.20;99.90;;;;;;5089243;28;19921;-74
2022/02/20 00:18:31;;;;;;;;;;;9.10;99.90;;;;;;5062174;28;19915;-76
2022/02/20 00:20:57;;;;;;;;;;;9.10;99.90;;;;;;5068859;28;19916;-73
2022/02/20 00:23:22;;;;;;;;;;;9.00;99.90;;;;;;5067661;28;19913;-74
2022/02/20 00:25:48;;;;;;;;;;;9.00;99.90;;;;;;5054415;28;19921;-72
2022/02/20 00:28:14;;;;;;;;;;;9.00;99.90;;;;;;5079166;28;20290;-74
2022/02/20 00:30:39;;;;;;;;;;;8.80;99.90;;;;;;5054149;28;19916;-73
2022/02/20 00:33:05;;;;;;;;;;;8.80;99.90;;;;;;5058986;28;19912;-73
2022/02/20 00:35:33;;;;;;;;;;;8.70;99.90;;;;;;5052671;28;19913;-73
2022/02/20 00:37:59;;;;;;;;;;;8.70;99.90;;;;;;5056189;28;19984;-73
2022/02/20 00:40:24;;;;;;;;;;;8.70;99.90;;;;;;5074989;28;20004;-73
2022/02/20 00:42:50;;;;;;;;;;;8.70;99.90;;;;;;5057248;28;19917;-75
2022/02/20 00:45:16;;;;;;;;;;;8.70;99.90;;;;;;5055895;28;19924;-74
2022/02/20 00:47:41;;;;;;;;;;;8.70;99.90;;;;;;5073647;28;20360;-73
2022/02/20 00:50:07;;;;;;;;;;;8.80;99.90;;;;;;5066415;28;19913;-72
2022/02/20 00:52:33;;;;;;;;;;;8.70;99.90;;;;;;5058939;28;20324;-72
2022/02/20 00:54:59;;;;;;;;;;;8.70;99.90;;;;;;5059506;28;19932;-73
2022/02/20 00:57:24;;;;;;;;;;;8.70;99.90;;;;;;5067028;28;19912;-72
2022/02/20 00:59:50;;;;;;;;;;;8.80;99.90;;;;;;5053095;28;20050;-73
2022/02/20 01:02:15;;;;;;;;;;;8.70;99.90;;;;;;5073877;28;19913;-72
2022/02/20 01:04:41;;;;;;;;;;;8.80;99.90;;;;;;5057337;28;19940;-73
2022/02/20 01:07:07;;;;;;;;;;;8.80;99.90;;;;;;5056417;28;20299;-74
2022/02/20 01:09:32;;;;;;;;;;;8.80;99.90;;;;;;5074832;28;19912;-73
2022/02/20 01:11:58;;;;;;;;;;;8.80;99.90;;;;;;5060707;28;19924;-71
2022/02/20 01:14:24;;;;;;;;;;;8.90;99.90;;;;;;5061743;28;19913;-73
2022/02/20 01:16:50;;;;;;;;;;;8.90;99.90;;;;;;5059061;28;19913;-73
2022/02/20 01:19:15;;;;;;;;;;;8.90;99.90;;;;;;5068462;28;20320;-75
2022/02/20 01:21:41;;;;;;;;;;;8.80;99.90;;;;;;5059189;28;20497;-73
2022/02/20 01:24:07;;;;;;;;;;;8.80;99.90;;;;;;5066456;28;19977;-73
2022/02/20 01:26:32;;;;;;;;;;;8.90;99.90;;;;;;5064940;28;19919;-72
2022/02/20 01:28:58;;;;;;;;;;;8.90;99.90;;;;;;5089491;28;19919;-73
2022/02/20 01:31:23;;;;;;;;;;;9.00;99.90;;;;;;5091063;28;20115;-73
2022/02/20 01:33:49;;;;;;;;;;;9.00;99.90;;;;;;5069087;28;20290;-73
2022/02/20 01:36:16;;;;;;;;;;;9.00;99.90;;;;;;5067224;28;19916;-73
2022/02/20 01:38:41;;;;;;;;;;;9.10;99.90;;;;;;5066626;28;19919;-72
2022/02/20 01:41:07;;;;;;;;;;;9.10;99.90;;;;;;5062344;28;19913;-72
2022/02/20 01:43:32;;;;;;;;;;;9.10;99.90;;;;;;5064820;28;19909;-72
2022/02/20 01:45:58;;;;;;;;;;;9.10;99.90;;;;;;5086427;28;19912;-74
2022/02/20 01:48:25;;;;;;;;;;;9.10;99.90;;;;;;5068477;28;20434;-71
2022/02/20 01:50:51;;;;;;;;;;;9.00;99.90;;;;;;5056797;28;20448;-73
2022/02/20 01:53:16;;;;;;;;;;;9.00;99.90;;;;;;5083100;28;19913;-72
2022/02/20 01:55:42;;;;;;;;;;;9.00;99.90;;;;;;5075612;28;20371;-73
2022/02/20 01:58:08;;;;;;;;;;;9.00;99.90;;;;;;5061287;28;19917;-72
2022/02/20 02:00:34;;;;;;;;;;;9.10;99.90;;;;;;5056084;28;19920;-73
2022/02/20 02:02:59;;;;;;;;;;;9.00;99.90;;;;;;5064786;28;20246;-72
2022/02/20 02:05:27;;;;;;;;;;;9.00;99.90;;;;;;5056611;28;19917;-72
2022/02/20 02:07:52;;;;;;;;;;;9.00;99.90;;;;;;5059133;28;19913;-73
2022/02/20 02:10:18;;;;;;;;;;;8.90;99.90;;;;;;5088289;28;19978;-74
2022/02/20 02:12:44;;;;;;;;;;;9.00;99.90;;;;;;5057715;28;20335;-72
2022/02/20 02:15:11;;;;;;;;;;;9.00;99.90;;;;;;5073171;28;19913;-73
2022/02/20 02:17:36;;;;;;;;;;;9.00;99.90;;;;;;5075575;28;20323;-73
2022/02/20 02:20:03;;;;;;;;;;;9.10;99.90;;;;;;5065315;28;19916;-72
2022/02/20 02:22:29;;;;;;;;;;;9.10;99.90;;;;;;5058866;28;20406;-73
2022/02/20 02:24:56;;;;;;;;;;;9.10;99.90;;;;;;5076536;28;20448;-74
2022/02/20 02:27:22;;;;;;;;;;;9.10;99.90;;;;;;5069778;28;19935;-74
2022/02/20 02:29:48;;;;;;;;;;;9.10;99.90;;;;;;5058887;28;20410;-73
2022/02/20 02:32:14;;;;;;;;;;;9.10;99.90;;;;;;5059728;28;19917;-74
2022/02/20 02:34:40;;;;;;;;;;;9.00;99.90;;;;;;5051193;28;19909;-72
2022/02/20 02:37:06;;;;;;;;;;;9.00;99.90;;;;;;5070744;28;20038;-73
2022/02/20 02:39:32;;;;;;;;;;;9.00;99.90;;;;;;5080294;28;19966;-74
2022/02/20 02:41:57;;;;;;;;;;;9.00;99.90;;;;;;5070131;28;19912;-72
2022/02/20 02:44:23;;;;;;;;;;;9.00;99.90;;;;;;5087967;28;19978;-73
2022/02/20 02:46:48;;;;;;;;;;;9.00;99.90;;;;;;5070832;28;19924;-73
2022/02/20 02:49:14;;;;;;;;;;;9.00;99.90;;;;;;5071584;28;20011;-73
2022/02/20 02:51:39;;;;;;;;;;;9.00;99.90;;;;;;5068101;28;19920;-73
2022/02/20 02:54:10;;;;;;;;;;;9.00;99.90;;;;;;5069719;28;19920;-72
2022/02/20 02:56:55;;;;;;;;;;;9.00;99.90;;;;;;5054032;28;20015;-72
2022/02/20 02:59:21;;;;;;;;;;;9.00;99.90;;;;;;5055327;28;20402;-73
2022/02/20 03:01:47;;;;;;;;;;;9.00;99.90;;;;;;5067192;28;20012;-72
2022/02/20 03:04:13;;;;;;;;;;;9.00;99.90;;;;;;5068118;28;20431;-73
2022/02/20 03:06:39;;;;;;;;;;;9.10;99.90;;;;;;5062870;28;19917;-73
2022/02/20 03:09:05;;;;;;;;;;;9.10;99.90;;;;;;5080686;28;19917;-74
2022/02/20 03:11:32;;;;;;;;;;;9.10;99.90;;;;;;5085697;28;19991;-74
2022/02/20 03:13:58;;;;;;;;;;;9.00;99.90;;;;;;5063441;28;19908;-73
2022/02/20 03:16:24;;;;;;;;;;;9.00;99.90;;;;;;5082055;28;19913;-73
2022/02/20 03:18:50;;;;;;;;;;;9.00;99.90;;;;;;5068763;28;20358;-73
2022/02/20 03:21:15;;;;;;;;;;;9.00;99.90;;;;;;5067866;28;19924;-73
2022/02/20 03:23:42;;;;;;;;;;;9.00;99.90;;;;;;5076555;28;19927;-74
2022/02/20 03:26:07;;;;;;;;;;;9.00;99.90;;;;;;5076876;28;19924;-74
2022/02/20 03:28:33;;;;;;;;;;;9.00;99.90;;;;;;5073289;28;20023;-73
2022/02/20 03:30:58;;;;;;;;;;;9.00;99.90;;;;;;5055941;28;20540;-72
2022/02/20 03:33:25;;;;;;;;;;;9.00;99.90;;;;;;5074198;28;19912;-73
2022/02/20 03:35:51;;;;;;;;;;;9.10;99.90;;;;;;5058493;28;19912;-73
2022/02/20 03:38:16;;;;;;;;;;;9.00;99.90;;;;;;5058990;28;19919;-74
2022/02/20 03:40:42;;;;;;;;;;;9.10;99.90;;;;;;5058891;28;19940;-74
2022/02/20 03:43:08;;;;;;;;;;;9.00;99.90;;;;;;5074633;28;19927;-73
2022/02/20 03:45:33;;;;;;;;;;;9.00;99.90;;;;;;5065060;28;19921;-74
2022/02/20 03:47:59;;;;;;;;;;;9.10;99.90;;;;;;5056343;28;19986;-73
2022/02/20 03:50:26;;;;;;;;;;;9.10;99.90;;;;;;5062094;28;19909;-74
2022/02/20 03:52:52;;;;;;;;;;;9.20;99.90;;;;;;5057021;28;20018;-74
2022/02/20 03:55:17;;;;;;;;;;;9.30;99.90;;;;;;5058174;28;19916;-73
2022/02/20 03:57:43;;;;;;;;;;;9.30;99.90;;;;;;5074669;28;19916;-72
2022/02/20 04:00:11;;;;;;;;;;;9.40;99.90;;;;;;5066493;28;19913;-73
2022/02/20 04:02:37;;;;;;;;;;;9.40;99.90;;;;;;5056715;28;20282;-73
2022/02/20 04:05:04;;;;;;;;;;;9.30;99.90;;;;;;5074578;28;20278;-73
2022/02/20 04:07:30;;;;;;;;;;;9.30;99.90;;;;;;5064820;28;19947;-73
2022/02/20 04:09:55;;;;;;;;;;;9.30;99.90;;;;;;5076503;28;20000;-72
2022/02/20 04:12:21;;;;;;;;;;;9.30;99.90;;;;;;5056486;28;20489;-71
2022/02/20 04:14:46;;;;;;;;;;;9.30;99.90;;;;;;5064432;28;19913;-73
2022/02/20 04:17:12;;;;;;;;;;;9.30;99.90;;;;;;5068893;28;19912;-73
2022/02/20 04:19:38;;;;;;;;;;;9.30;99.90;;;;;;5053329;28;19920;-73
2022/02/20 04:22:03;;;;;;;;;;;9.30;99.90;;;;;;5086776;28;19993;-74
2022/02/20 04:24:29;;;;;;;;;;;9.20;99.90;;;;;;5063590;28;20015;-73
2022/02/20 04:26:54;;;;;;;;;;;9.20;99.90;;;;;;5066142;28;19924;-74
2022/02/20 04:29:20;;;;;;;;;;;9.20;99.90;;;;;;5058758;28;20904;-73
2022/02/20 04:31:46;;;;;;;;;;;9.20;99.90;;;;;;5068786;28;20382;-74
2022/02/20 04:34:11;;;;;;;;;;;9.00;99.90;;;;;;5057143;28;19935;-73
2022/02/20 04:36:37;;;;;;;;;;;9.00;99.90;;;;;;5068259;28;19916;-74
2022/02/20 04:39:06;;;;;;;;;;;8.90;99.90;;;;;;5085187;28;19983;-73
2022/02/20 04:41:32;;;;;;;;;;;8.90;99.90;;;;;;5066520;28;19940;-75
2022/02/20 04:43:58;;;;;;;;;;;8.90;99.90;;;;;;5058739;28;20432;-74
2022/02/20 04:46:24;;;;;;;;;;;8.90;99.90;;;;;;5077569;28;19948;-74
2022/02/20 04:48:49;;;;;;;;;;;8.90;99.90;;;;;;5059741;28;20685;-73
2022/02/20 04:51:15;;;;;;;;;;;8.90;99.90;;;;;;5060464;28;20382;-73
2022/02/20 04:53:41;;;;;;;;;;;8.90;99.90;;;;;;5059255;28;20397;-73
2022/02/20 04:56:06;;;;;;;;;;;8.90;99.90;;;;;;5070761;28;19919;-74
2022/02/20 04:58:32;;;;;;;;;;;8.90;99.90;;;;;;5073048;28;20338;-74
2022/02/20 05:00:57;;;;;;;;;;;8.90;99.90;;;;;;5057607;28;19977;-74
2022/02/20 05:03:23;;;;;;;;;;;8.90;99.90;;;;;;5060198;28;19913;-74
2022/02/20 05:05:49;;;;;;;;;;;9.00;99.90;;;;;;5077135;28;20121;-73
2022/02/20 05:08:14;;;;;;;;;;;9.10;99.90;;;;;;5075538;28;19916;-75
2022/02/20 05:10:40;;;;;;;;;;;9.00;99.90;;;;;;5071629;28;19955;-74
2022/02/20 05:13:06;;;;;;;;;;;9.10;99.90;;;;;;5056777;28;20508;-74
2022/02/20 05:15:31;;;;;;;;;;;9.00;99.90;;;;;;5056925;28;19966;-73
2022/02/20 05:17:57;;;;;;;;;;;9.00;99.90;;;;;;5058314;28;19913;-74
2022/02/20 05:20:23;;;;;;;;;;;9.00;99.90;;;;;;5057678;28;20026;-74
2022/02/20 05:22:48;;;;;;;;;;;8.90;99.90;;;;;;5059034;28;20021;-74
2022/02/20 05:25:14;;;;;;;;;;;9.00;99.90;;;;;;5059598;28;20390;-73
2022/02/20 05:27:42;;;;;;;;;;;8.90;99.90;;;;;;5061775;28;19921;-72
2022/02/20 05:30:08;;;;;;;;;;;8.90;99.90;;;;;;5066181;28;20374;-74
2022/02/20 05:32:34;;;;;;;;;;;8.80;99.90;;;;;;5064528;28;19966;-73
2022/02/20 05:35:00;;;;;;;;;;;8.80;99.90;;;;;;5060402;28;19913;-74
2022/02/20 05:37:25;;;;;;;;;;;8.70;99.90;;;;;;5072657;28;19947;-74
2022/02/20 05:39:51;;;;;;;;;;;8.70;99.90;;;;;;5059114;28;20011;-73
2022/02/20 05:42:17;;;;;;;;;;;8.70;99.90;;;;;;5071976;28;19910;-74
2022/02/20 05:44:42;;;;;;;;;;;8.70;99.90;;;;;;5064374;28;20027;-72
2022/02/20 05:47:09;;;;;;;;;;;8.70;99.90;;;;;;5065128;28;19923;-73
2022/02/20 05:49:35;;;;;;;;;;;8.70;99.90;;;;;;5071374;28;19952;-73
2022/02/20 05:52:00;;;;;;;;;;;8.80;99.90;;;;;;5089308;28;19915;-73
2022/02/20 05:54:26;;;;;;;;;;;8.70;99.90;;;;;;5071761;28;19913;-74
2022/02/20 05:56:52;;;;;;;;;;;8.70;99.90;;;;;;5063906;28;19988;-74
2022/02/20 05:59:17;;;;;;;;;;;8.70;99.90;;;;;;5063158;28;19912;-75
2022/02/20 06:01:43;;;;;;;;;;;8.80;99.90;;;;;;5066859;28;20371;-72
2022/02/20 06:04:08;;;;;;;;;;;8.70;99.90;;;;;;5054181;28;19943;-73
2022/02/20 06:06:34;;;;;;;;;;;8.70;99.90;;;;;;5052366;28;19909;-73
2022/02/20 06:09:00;;;;;;;;;;;8.70;99.90;;;;;;5067012;28;19978;-74
2022/02/20 06:11:26;;;;;;;;;;;8.70;99.90;;;;;;5068120;28;19951;-74
2022/02/20 06:13:51;;;;;;;;;;;8.70;99.90;;;;;;5061388;28;19913;-74
2022/02/20 06:16:17;;;;;;;;;;;8.80;99.90;;;;;;5065852;28;19920;-74
2022/02/20 06:18:43;;;;;;;;;;;8.80;99.90;;;;;;5072393;28;19915;-74
2022/02/20 06:21:08;;;;;;;;;;;8.90;99.90;;;;;;5069196;28;20382;-73
2022/02/20 06:23:34;;;;;;;;;;;9.00;99.90;;;;;;5084012;28;20374;-73
2022/02/20 06:26:00;;;;;;;;;;;8.90;99.90;;;;;;5080451;28;20342;-73
2022/02/20 06:28:26;;;;;;;;;;;9.00;99.90;;;;;;5075072;28;19917;-73
2022/02/20 06:30:51;;;;;;;;;;;8.90;99.90;;;;;;5058644;28;19912;-73
2022/02/20 06:33:17;;;;;;;;;;;8.90;99.90;;;;;;5071645;28;20061;-74
2022/02/20 06:35:42;;;;;;;;;;;8.90;99.90;;;;;;5071246;28;19950;-74
2022/02/20 06:38:08;;;;;;;;;;;9.00;99.90;;;;;;5087997;28;20332;-74
2022/02/20 06:40:34;;;;;;;;;;;9.00;99.90;;;;;;5058676;28;19919;-74
2022/02/20 06:43:00;;;;;;;;;;;9.10;99.90;;;;;;5071367;28;19967;-74
2022/02/20 06:45:25;;;;;;;;;;;9.20;99.90;;;;;;5060332;28;19921;-74
2022/02/20 06:47:51;;;;;;;;;;;9.30;99.90;;;;;;5061423;28;19912;-73
2022/02/20 06:50:17;;;;;;;;;;;9.30;99.90;;;;;;5053051;28;19913;-74
2022/02/20 06:52:43;;;;;;;;;;;9.30;99.90;;;;;;5059780;28;19919;-74
2022/02/20 06:55:11;;;;;;;;;;;9.30;99.90;;;;;;5058881;28;20349;-74
2022/02/20 06:57:37;;;;;;;;;;;9.30;99.90;;;;;;5060322;28;19920;-74
2022/02/20 07:00:07;;;;;;;;;;;9.40;99.90;;;;;;5067664;28;19924;-74
2022/02/20 07:02:33;;;;;;;;;;;9.40;99.90;;;;;;5059556;28;19938;-73
2022/02/20 07:04:59;;;;;;;;;;;9.50;99.90;;;;;;5055942;28;19997;-74
2022/02/20 07:07:25;;;;;;;;;;;9.50;99.90;;;;;;5059045;28;19920;-74
2022/02/20 07:09:50;;;;;;;;;;;9.50;99.90;;;;;;5060748;28;20320;-75
2022/02/20 07:12:16;;;;;;;;;;;9.60;99.90;;;;;;5057620;28;19917;-75
2022/02/20 07:14:41;;;;;;;;;;;9.60;99.90;;;;;;5074550;28;20043;-74
2022/02/20 07:17:07;;;;;;;;;;;9.70;99.90;;;;;;5068826;28;19921;-75
2022/02/20 07:19:32;;;;;;;;;;;9.70;99.90;;;;;;5074435;28;20003;-73
2022/02/20 07:21:58;;;;;;;;;;;9.60;99.90;;;;;;5066758;28;20402;-74
2022/02/20 07:24:24;;;;;;;;;;;9.50;99.90;;;;;;5058609;28;19912;-75
2022/02/20 07:26:49;;;;;;;;;;;9.60;99.90;;;;;;5063636;28;20250;-73
2022/02/20 07:29:15;;;;;;;;;;;9.50;99.90;;;;;;5054468;28;20027;-74
2022/02/20 07:31:41;;;;;;;;;;;9.60;99.90;;;;;;5053226;28;19909;-74
2022/02/20 07:34:06;;;;;;;;;;;9.60;99.90;;;;;;5062650;28;19912;-74
2022/02/20 07:36:32;;;;;;;;;;;9.70;99.90;;;;;;5071362;28;19916;-75
2022/02/20 07:38:57;;;;;;;;;;;9.70;99.90;;;;;;5053618;28;19908;-73
2022/02/20 07:41:23;;;;;;;;;;;9.70;99.90;;;;;;5064499;28;19912;-76
2022/02/20 07:43:50;;;;;;;;;;;9.60;99.90;;;;;;5074210;28;19909;-74
2022/02/20 07:46:16;;;;;;;;;;;9.60;99.90;;;;;;5068053;28;19919;-74
2022/02/20 07:48:43;;;;;;;;;;;9.60;99.90;;;;;;5055715;28;19919;-75
2022/02/20 07:51:09;;;;;;;;;;;9.60;99.90;;;;;;5061651;28;20011;-75
2022/02/20 07:53:35;;;;;;;;;;;9.60;99.90;;;;;;5075437;28;19999;-74
2022/02/20 07:56:00;;;;;;;;;;;9.60;99.90;;;;;;5065825;28;19958;-75
2022/02/20 07:58:26;;;;;;;;;;;9.60;99.90;;;;;;5058161;28;19920;-74
2022/02/20 08:00:52;;;;;;;;;;;9.70;99.90;;;;;;5069127;28;19913;-75
2022/02/20 08:03:19;;;;;;;;;;;9.70;99.90;;;;;;5063473;28;19919;-74
2022/02/20 08:05:45;;;;;;;;;;;9.80;99.90;;;;;;5076028;28;19956;-73
2022/02/20 08:08:11;;;;;;;;;;;9.90;99.90;;;;;;5052297;28;20528;-74
2022/02/20 08:10:37;;;;;;;;;;;10.00;99.90;;;;;;5073012;28;19912;-74
2022/02/20 08:13:02;;;;;;;;;;;10.10;99.90;;;;;;5057021;28;19912;-74
2022/02/20 08:15:28;;;;;;;;;;;10.20;99.90;;;;;;5070217;28;20011;-74
2022/02/20 08:17:54;;;;;;;;;;;10.30;99.90;;;;;;5060649;28;19927;-75
2022/02/20 08:20:19;;;;;;;;;;;10.40;99.90;;;;;;5055291;28;19924;-74
2022/02/20 08:22:46;;;;;;;;;;;10.50;99.90;;;;;;5064298;28;20443;-74
2022/02/20 08:25:12;;;;;;;;;;;10.60;99.90;;;;;;5052445;28;19916;-75
2022/02/20 08:27:38;;;;;;;;;;;10.70;99.90;;;;;;5059014;28;19917;-74
2022/02/20 08:30:04;;;;;;;;;;;10.70;99.90;;;;;;5077298;28;19968;-73
2022/02/20 08:32:30;;;;;;;;;;;10.70;99.90;;;;;;5064688;28;20024;-74
2022/02/20 08:34:56;;;;;;;;;;;10.80;99.90;;;;;;5062991;28;19990;-74
2022/02/20 08:37:21;;;;;;;;;;;10.80;99.90;;;;;;5061158;28;19974;-75
2022/02/20 08:39:47;;;;;;;;;;;10.80;99.90;;;;;;5064605;28;20007;-74
2022/02/20 08:42:12;;;;;;;;;;;11.00;99.90;;;;;;5076603;28;19921;-73
2022/02/20 08:44:38;;;;;;;;;;;11.00;99.90;;;;;;5070424;28;19935;-75
2022/02/20 08:47:04;;;;;;;;;;;11.00;99.90;;;;;;5071212;28;20340;-74
2022/02/20 08:49:30;;;;;;;;;;;11.10;99.90;;;;;;5075860;28;19916;-74
2022/02/20 08:51:56;;;;;;;;;;;11.10;99.90;;;;;;5069879;28;19916;-75
2022/02/20 08:54:22;;;;;;;;;;;11.10;99.90;;;;;;5075836;28;20465;-74
2022/02/20 08:56:47;;;;;;;;;;;11.10;99.90;;;;;;5089807;28;19913;-75
2022/02/20 08:59:13;;;;;;;;;;;10.90;99.90;;;;;;5091596;28;19938;-75
2022/02/20 09:01:38;;;;;;;;;;;10.70;99.90;;;;;;5073031;28;19923;-76
2022/02/20 09:04:04;;;;;;;;;;;10.80;99.90;;;;;;5077169;28;20323;-75
2022/02/20 09:06:30;;;;;;;;;;;10.90;99.90;;;;;;5089326;28;20005;-74
2022/02/20 09:08:56;;;;;;;;;;;11.00;99.90;;;;;;5074306;28;19916;-75
2022/02/20 09:11:23;;;;;;;;;;;11.10;99.90;;;;;;5075732;28;20259;-75
2022/02/20 09:13:48;;;;;;;;;;;11.20;99.90;;;;;;5074461;28;19942;-75
2022/02/20 09:16:14;;;;;;;;;;;11.20;99.90;;;;;;5077035;28;19940;-75
2022/02/20 09:18:40;;;;;;;;;;;11.30;99.90;;;;;;5075564;28;19913;-74
2022/02/20 09:21:05;;;;;;;;;;;11.40;99.90;;;;;;5074261;28;19970;-74
2022/02/20 09:23:31;;;;;;;;;;;11.50;99.90;;;;;;5068857;28;19913;-75
2022/02/20 09:25:57;;;;;;;;;;;11.70;99.90;;;;;;5090572;28;20323;-76
2022/02/20 09:28:22;;;;;;;;;;;11.80;99.90;;;;;;5067118;28;19921;-71
2022/02/20 09:30:48;;;;;;;;;;;11.90;99.90;;;;;;5067507;28;20584;-71
2022/02/20 09:33:14;;;;;;;;;;;12.10;99.90;;;;;;5060886;28;20413;-70
2022/02/20 09:35:39;;;;;;;;;;;11.90;99.90;;;;;;5063270;28;19952;-70
2022/02/20 09:38:05;;;;;;;;;;;12.00;99.90;;;;;;5066803;28;19913;-72
2022/02/20 09:40:31;;;;;;;;;;;12.00;99.90;;;;;;5069591;28;20010;-70
2022/02/20 09:42:57;;;;;;;;;;;12.10;99.90;;;;;;5058386;28;19932;-72
2022/02/20 09:45:23;;;;;;;;;;;12.20;99.90;;;;;;5065996;28;20313;-71
2022/02/20 09:47:48;;;;;;;;;;;12.20;99.90;;;;;;5064100;28;19922;-70
2022/02/20 09:50:14;;;;;;;;;;;12.30;99.90;;;;;;5063610;28;19992;-72
2022/02/20 09:52:40;;;;;;;;;;;12.40;99.90;;;;;;5068545;28;19939;-72
2022/02/20 09:55:06;;;;;;;;;;;12.50;99.90;;;;;;5060974;28;20051;-73
2022/02/20 09:57:31;;;;;;;;;;;12.50;99.90;;;;;;5069671;28;19917;-73
2022/02/20 09:59:57;;;;;;;;;;;12.60;99.90;;;;;;5077576;28;19974;-71
2022/02/20 10:02:25;;;;;;;;;;;12.80;99.90;;;;;;5073073;28;19915;-72
2022/02/20 10:04:52;;;;;;;;;;;13.00;99.90;;;;;;5066995;28;19920;-71
2022/02/20 10:07:28;;;;;;;;;;;13.10;99.90;;;;;;5069302;28;19912;-73
2022/02/20 10:09:54;;;;;;;;;;;13.30;99.90;;;;;;5066993;28;19921;-72
2022/02/20 10:12:27;;;;;;;;;;;13.40;99.90;;;;;;5065842;28;19916;-72
2022/02/20 10:14:53;;;;;;;;;;;13.40;99.90;;;;;;5056274;28;19935;-74
2022/02/20 10:17:19;;;;;;;;;;;13.40;99.90;;;;;;5069686;28;20401;-73
2022/02/20 10:19:54;;;;;;;;;;;13.50;99.90;;;;;;5065453;28;19976;-73
2022/02/20 10:22:27;;;;;;;;;;;13.50;99.90;;;;;;5064884;28;19916;-74
2022/02/20 10:25:13;;;;;;;;;;;13.70;99.90;;;;;;5063939;28;19940;-71
2022/02/20 10:27:51;;;;;;;;;;;13.70;99.90;;;;;;5073799;28;19916;-70
2022/02/20 10:30:25;;;;;;;;;;;13.90;99.90;;;;;;5080711;28;19913;-73
2022/02/20 10:33:03;;;;;;;;;;;14.00;99.90;;;;;;5055167;28;20398;-72
2022/02/20 10:35:33;;;;;;;;;;;14.00;99.90;;;;;;5056089;28;19920;-75
2022/02/20 10:38:04;;;;;;;;;;;14.20;99.90;;;;;;5062090;28;20000;-72
2022/02/20 10:40:30;;;;;;;;;;;14.30;99.90;;;;;;5080623;28;20397;-72
2022/02/20 10:43:04;;;;;;;;;;;14.30;99.90;;;;;;5062841;28;19952;-71
2022/02/20 10:45:32;;;;;;;;;;;14.50;99.90;;;;;;5053334;28;19920;-65
2022/02/20 10:47:58;;;;;;;;;;;14.40;99.90;;;;;;5064397;28;20011;-66
2022/02/20 10:50:25;;;;;;;;;;;14.10;99.90;;;;;;5071813;28;20327;-66
2022/02/20 10:53:10;;;;;;;;;;;13.90;99.90;;;;;;5060664;28;19913;-65
2022/02/20 10:55:40;;;;;;;;;;;13.80;99.90;;;;;;5064701;28;19939;-66
2022/02/20 10:58:13;;;;;;;;;;;13.70;99.90;;;;;;5079975;28;19908;-65
2022/02/20 11:00:49;;;;;;;;;;;13.70;99.90;;;;;;5084547;28;20002;-67
2022/02/20 11:03:15;;;;;;;;;;;13.70;99.90;;;;;;5075451;28;19931;-67
2022/02/20 11:05:41;;;;;;;;;;;13.60;99.90;;;;;;5069761;28;19916;-64
2022/02/20 11:08:07;;;;;;;;;;;13.50;99.90;;;;;;5057342;28;19909;-65
2022/02/20 11:10:34;;;;;;;;;;;13.40;99.90;;;;;;5060887;28;19965;-64
2022/02/20 11:13:00;;;;;;;;;;;13.40;99.90;;;;;;5060395;28;19909;-66
2022/02/20 11:15:26;;;;;;;;;;;13.40;99.90;;;;;;5064254;28;19995;-67
2022/02/20 11:17:54;;;;;;;;;;;13.40;99.90;;;;;;5068998;28;19969;-69
2022/02/20 11:20:20;;;;;;;;;;;13.40;99.90;;;;;;5061825;28;19917;-68
2022/02/20 11:22:48;;;;;;;;;;;13.40;99.90;;;;;;5072218;28;20394;-67
2022/02/20 11:25:14;;;;;;;;;;;13.30;99.90;;;;;;5053746;28;20287;-66
2022/02/20 11:27:41;;;;;;;;;;;13.40;99.90;;;;;;5070905;28;19915;-68
2022/02/20 11:30:07;;;;;;;;;;;13.40;99.90;;;;;;5064933;28;19912;-66
2022/02/20 11:32:36;;;;;;;;;;;13.50;99.90;;;;;;5069606;28;19920;-67
2022/02/20 11:35:01;;;;;;;;;;;13.50;99.90;;;;;;5061641;28;20279;-67
2022/02/20 11:37:47;;;;;;;;;;;13.50;99.90;;;;;;5080237;28;19920;-67
2022/02/20 11:40:15;;;;;;;;;;;13.60;99.90;;;;;;5060956;28;19920;-66
2022/02/20 11:42:59;;;;;;;;;;;13.60;99.90;;;;;;5056058;28;19912;-67
2022/02/20 11:45:25;;;;;;;;;;;13.60;99.90;;;;;;5070628;28;19912;-69
2022/02/20 11:48:10;;;;;;;;;;;13.40;99.90;;;;;;5079036;28;19920;-67
2022/02/20 11:50:41;;;;;;;;;;;13.40;99.90;;;;;;5068844;28;19913;-69
2022/02/20 11:53:07;;;;;;;;;;;13.50;99.90;;;;;;5086759;28;19984;-67
2022/02/20 11:55:35;;;;;;;;;;;13.50;99.90;;;;;;5067037;28;20340;-66
2022/02/20 11:58:10;;;;;;;;;;;13.50;99.90;;;;;;5077119;28;19948;-68
2022/02/20 12:00:35;;;;;;;;;;;13.50;99.90;;;;;;5071247;28;19912;-66
2022/02/20 12:03:10;;;;;;;;;;;13.40;99.90;;;;;;5068523;28;20384;-67
2022/02/20 12:05:36;;;;;;;;;;;13.10;99.90;;;;;;5077310;28;19921;-67
2022/02/20 12:08:27;;;;;;;;;;;13.00;99.90;;;;;;5078466;28;19931;-67
2022/02/20 12:11:08;;;;;;;;;;;12.80;99.90;;;;;;5059108;28;19919;-67
2022/02/20 12:13:33;;;;;;;;;;;12.70;99.90;;;;;;5063925;28;19913;-68
2022/02/20 12:16:17;;;;;;;;;;;12.70;99.90;;;;;;5068884;28;19917;-67
2022/02/20 12:19:02;;;;;;;;;;;12.60;99.90;;;;;;5062770;28;19999;-69
2022/02/20 12:21:30;;;;;;;;;;;12.60;99.90;;;;;;5062771;28;20045;-67
2022/02/20 12:23:57;;;;;;;;;;;12.60;99.90;;;;;;5071503;28;19908;-67
2022/02/20 12:26:41;;;;;;;;;;;12.60;99.90;;;;;;5067238;28;20401;-68
2022/02/20 12:29:29;;;;;;;;;;;12.70;99.90;;;;;;5069471;28;19909;-69
2022/02/20 12:31:58;;;;;;;;;;;12.90;99.90;;;;;;5069633;28;19971;-66
2022/02/20 12:34:42;;;;;;;;;;;13.00;99.90;;;;;;5060298;28;19932;-68
2022/02/20 12:37:10;;;;;;;;;;;13.00;99.90;;;;;;5056486;28;19919;-68
2022/02/20 12:39:36;;;;;;;;;;;13.00;99.90;;;;;;5071751;28;19942;-69
2022/02/20 12:42:02;;;;;;;;;;;13.10;99.90;;;;;;5066776;28;19914;-68
2022/02/20 12:44:29;;;;;;;;;;;13.20;99.90;;;;;;5070345;28;20015;-68
2022/02/20 12:46:54;;;;;;;;;;;13.10;99.90;;;;;;5053102;28;19919;-69
2022/02/20 12:49:20;;;;;;;;;;;13.00;99.90;;;;;;5068686;28;19914;-68
2022/02/20 12:51:45;;;;;;;;;;;13.00;99.90;;;;;;5052345;28;19912;-68
2022/02/20 12:54:11;;;;;;;;;;;13.00;99.90;;;;;;5060337;28;19916;-69
2022/02/20 12:56:37;;;;;;;;;;;13.00;99.90;;;;;;5085818;28;19934;-68
2022/02/20 12:59:02;;;;;;;;;;;13.10;99.90;;;;;;5058103;28;19913;-69
2022/02/20 13:01:28;;;;;;;;;;;13.10;99.90;;;;;;5079964;28;20073;-68
2022/02/20 13:03:54;;;;;;;;;;;13.20;99.90;;;;;;5066416;28;19944;-68
2022/02/20 13:06:20;;;;;;;;;;;13.30;99.90;;;;;;5061170;28;19916;-67
2022/02/20 13:08:46;;;;;;;;;;;13.30;99.90;;;;;;5070343;28;19916;-67
2022/02/20 13:11:23;;;;;;;;;;;13.40;99.90;;;;;;5056529;28;19999;-68
2022/02/20 13:13:48;;;;;;;;;;;13.30;99.90;;;;;;5060267;28;19923;-68
2022/02/20 13:16:16;;;;;;;;;;;13.20;99.90;;;;;;5065840;28;19916;-67
2022/02/20 13:18:43;;;;;;;;;;;13.10;99.90;;;;;;5067002;28;19920;-68
2022/02/20 13:21:11;;;;;;;;;;;12.90;99.90;;;;;;5067373;28;19959;-68
2022/02/20 13:23:38;;;;;;;;;;;13.00;99.90;;;;;;5060749;28;20008;-68
2022/02/20 13:26:10;;;;;;;;;;;13.00;99.90;;;;;;5071665;28;20107;-68
2022/02/20 13:28:39;;;;;;;;;;;13.20;99.90;;;;;;5086146;28;19912;-68
2022/02/20 13:31:09;;;;;;;;;;;13.30;99.90;;;;;;5058800;28;19940;-68
2022/02/20 13:33:40;;;;;;;;;;;13.30;99.90;;;;;;5061937;28;20399;-67
2022/02/20 13:36:06;;;;;;;;;;;13.30;99.90;;;;;;5062802;28;19913;-69
2022/02/20 13:38:32;;;;;;;;;;;13.20;99.90;;;;;;5072663;28;19912;-67
2022/02/20 13:41:00;;;;;;;;;;;13.10;99.90;;;;;;5058866;28;19913;-67
2022/02/20 13:43:37;;;;;;;;;;;13.00;99.90;;;;;;5062355;28;19919;-68
2022/02/20 13:46:03;;;;;;;;;;;13.00;99.90;;;;;;5059540;28;19916;-68
2022/02/20 13:48:30;;;;;;;;;;;13.00;99.90;;;;;;5060897;28;19917;-68
2022/02/20 13:51:11;;;;;;;;;;;12.90;99.90;;;;;;5077794;28;19909;-69
2022/02/20 13:53:37;;;;;;;;;;;12.90;99.90;;;;;;5060062;28;19920;-68
2022/02/20 13:56:03;;;;;;;;;;;12.70;99.90;;;;;;5058115;28;19921;-69
2022/02/20 13:58:29;;;;;;;;;;;12.60;99.90;;;;;;5075521;28;19913;-68
2022/02/20 14:00:56;;;;;;;;;;;12.70;99.90;;;;;;5063227;28;20401;-68
2022/02/20 14:03:23;;;;;;;;;;;12.60;99.90;;;;;;5075874;28;19920;-68
2022/02/20 14:05:52;;;;;;;;;;;12.50;99.90;;;;;;5073802;28;19965;-69
2022/02/20 14:08:18;;;;;;;;;;;12.60;99.90;;;;;;5067726;28;19913;-67
2022/02/20 14:10:57;;;;;;;;;;;12.70;99.90;;;;;;5060884;28;19917;-67
2022/02/20 14:13:23;;;;;;;;;;;12.90;99.90;;;;;;5056552;28;19909;-69
2022/02/20 14:16:00;;;;;;;;;;;12.70;99.90;;;;;;5060539;28;19923;-68
2022/02/20 14:18:27;;;;;;;;;;;12.40;99.90;;;;;;5073682;28;19951;-68
2022/02/20 14:20:54;;;;;;;;;;;12.20;99.90;;;;;;5061990;28;20166;-68
2022/02/20 14:23:24;;;;;;;;;;;12.10;99.90;;;;;;5064076;28;21626;-68